createdAt,value
2023-03-03T00:00:13.707Z,12.73
2023-03-03T00:04:15.159Z,12.70
2023-03-03T00:08:17.348Z,13.80
2023-03-03T00:12:26.457Z,13.38
2023-03-03T00:16:35.258Z,9.93
2023-03-03T00:20:39.110Z,14.00
2023-03-03T00:24:40.611Z,15.40
2023-03-03T00:28:48.050Z,15.25
2023-03-03T00:32:53.114Z,15.43
2023-03-03T00:36:57.083Z,15.20
2023-03-03T00:40:58.530Z,14.68
2023-03-03T00:45:00.670Z,15.07
2023-03-03T00:49:27.298Z,13.23
2023-03-03T00:53:30.505Z,14.07
2023-03-03T00:57:32.011Z,15.57
2023-03-03T01:01:33.487Z,13.48
2023-03-03T01:05:36.126Z,14.27
2023-03-03T01:09:37.651Z,13.07
2023-03-03T01:13:41.670Z,13.90
2023-03-03T01:17:43.565Z,13.20
2023-03-03T01:21:45.036Z,11.98
2023-03-03T01:25:46.568Z,12.88
2023-03-03T01:29:48.007Z,9.93
2023-03-03T01:33:49.671Z,12.48
2023-03-03T01:37:51.154Z,12.18
2023-03-03T01:41:52.820Z,11.00
2023-03-03T01:45:57.225Z,11.27
2023-03-03T01:50:04.167Z,11.00
2023-03-03T01:54:14.633Z,10.88
2023-03-03T01:58:26.668Z,11.52
2023-03-03T02:02:28.934Z,12.10
2023-03-03T02:06:37.375Z,13.15
2023-03-03T02:10:39.105Z,13.27
2023-03-03T02:14:40.630Z,13.43
2023-03-03T02:18:42.308Z,12.55
2023-03-03T02:22:51.093Z,14.70
2023-03-03T02:26:52.578Z,12.10
2023-03-03T02:30:59.271Z,13.90
2023-03-03T02:35:00.720Z,11.73
2023-03-03T02:39:22.290Z,14.35
2023-03-03T02:43:26.663Z,12.40
2023-03-03T02:47:28.140Z,11.85
2023-03-03T02:51:30.123Z,11.23
2023-03-03T02:55:31.638Z,12.07
2023-03-03T02:59:33.197Z,11.50
2023-03-03T03:03:34.710Z,11.68
2023-03-03T03:07:36.239Z,12.13
2023-03-03T03:11:38.436Z,11.85
2023-03-03T03:15:39.910Z,10.63
2023-03-03T03:19:41.445Z,13.43
2023-03-03T03:23:43.465Z,13.45
2023-03-03T03:27:44.952Z,8.55
2023-03-03T03:31:46.427Z,13.52
2023-03-03T03:35:48.289Z,15.18
2023-03-03T03:39:50.585Z,15.50
2023-03-03T03:43:52.067Z,14.82
2023-03-03T03:47:53.529Z,13.98
2023-03-03T03:51:54.956Z,9.45
2023-03-03T03:55:56.642Z,13.32
2023-03-03T03:59:58.151Z,14.73
2023-03-03T04:03:59.696Z,18.27
2023-03-03T04:08:01.173Z,15.23
2023-03-03T04:12:02.723Z,14.75
2023-03-03T04:16:04.392Z,11.52
2023-03-03T04:20:07.701Z,13.98
2023-03-03T04:24:09.277Z,13.10
2023-03-03T04:28:10.928Z,14.48
2023-03-03T04:32:12.420Z,13.27
2023-03-03T04:36:13.923Z,16.52
2023-03-03T04:40:16.364Z,15.23
2023-03-03T04:44:17.823Z,13.52
2023-03-03T04:48:19.280Z,13.05
2023-03-03T04:52:20.781Z,14.07
2023-03-03T04:56:22.635Z,12.90
2023-03-03T05:00:24.308Z,10.13
2023-03-03T05:04:25.842Z,11.68
2023-03-03T05:08:27.341Z,11.30
2023-03-03T05:12:28.798Z,10.95
2023-03-03T05:16:30.320Z,11.00
2023-03-03T05:20:31.776Z,10.73
2023-03-03T05:24:34.339Z,11.75
2023-03-03T05:28:35.825Z,10.88
2023-03-03T05:32:37.779Z,13.60
2023-03-03T05:36:39.275Z,12.63
2023-03-03T05:40:40.796Z,11.20
2023-03-03T05:44:42.328Z,11.93
2023-03-03T05:48:44.064Z,10.90
2023-03-03T05:52:48.493Z,7.72
2023-03-03T05:56:49.953Z,11.63
2023-03-03T06:00:51.483Z,9.68
2023-03-03T06:04:52.939Z,11.40
2023-03-03T06:08:57.083Z,12.75
2023-03-03T06:12:58.971Z,11.57
2023-03-03T06:17:00.511Z,12.40
2023-03-03T06:21:02.013Z,11.13
2023-03-03T06:25:03.778Z,11.48
2023-03-03T06:29:05.265Z,10.75
2023-03-03T06:33:06.738Z,10.25
2023-03-03T06:37:08.243Z,10.25
2023-03-03T06:41:10.018Z,9.48
2023-03-03T06:45:12.092Z,11.00
2023-03-03T06:49:13.624Z,8.20
2023-03-03T06:53:18.111Z,9.10
2023-03-03T06:57:31.086Z,9.93
2023-03-03T07:01:37.158Z,8.18
2023-03-03T07:05:38.627Z,5.00
2023-03-03T07:09:40.116Z,11.63
2023-03-03T07:13:46.674Z,9.93
2023-03-03T07:17:51.231Z,9.45
2023-03-03T07:21:53.172Z,10.25
2023-03-03T07:25:55.315Z,11.95
2023-03-03T07:30:18.924Z,5.13
2023-03-03T07:34:30.327Z,9.10
2023-03-03T07:38:39.598Z,9.57
2023-03-03T07:42:44.312Z,10.68
2023-03-03T07:46:50.393Z,11.90
2023-03-03T07:50:52.209Z,10.40
2023-03-03T07:54:56.462Z,11.07
2023-03-03T07:58:58.542Z,10.70
2023-03-03T08:03:05.798Z,8.15
2023-03-03T08:07:23.383Z,9.57
2023-03-03T08:11:25.681Z,8.57
2023-03-03T08:15:36.602Z,9.65
2023-03-03T08:19:38.125Z,9.60
2023-03-03T08:23:39.824Z,7.35
2023-03-03T08:27:41.271Z,6.45
2023-03-03T08:31:42.741Z,7.18
2023-03-03T08:35:44.931Z,7.20
2023-03-03T08:39:46.457Z,7.50
2023-03-03T08:43:48.292Z,8.05
2023-03-03T08:47:49.858Z,7.93
2023-03-03T08:51:52.630Z,9.20
2023-03-03T08:55:54.193Z,7.93
2023-03-03T08:59:55.667Z,7.28
2023-03-03T09:03:57.882Z,7.20
2023-03-03T09:08:00.482Z,7.93
2023-03-03T09:12:19.665Z,8.60
2023-03-03T09:16:22.293Z,5.53
2023-03-03T09:20:33.654Z,4.35
2023-03-03T09:24:36.415Z,5.47
2023-03-03T09:28:37.991Z,6.30
2023-03-03T09:32:39.755Z,7.20
2023-03-03T09:36:41.299Z,5.53
2023-03-03T09:41:12.931Z,6.72
2023-03-03T09:45:23.324Z,5.65
2023-03-03T09:49:45.196Z,4.05
2023-03-03T09:54:05.422Z,3.97
2023-03-03T09:58:34.807Z,6.20
2023-03-03T10:02:58.019Z,6.28
2023-03-03T10:07:33.372Z,7.13
2023-03-03T10:12:05.179Z,7.68
2023-03-03T10:16:25.345Z,7.22
2023-03-03T10:20:49.723Z,7.65
2023-03-03T10:25:13.568Z,4.47
2023-03-03T10:30:12.132Z,5.18
2023-03-03T10:34:50.287Z,6.10
2023-03-03T10:38:55.302Z,3.17
2023-03-03T10:43:29.789Z,6.72
2023-03-03T10:47:38.922Z,6.60
2023-03-03T10:51:59.119Z,6.38
2023-03-03T10:56:52.405Z,5.85
2023-03-03T11:01:19.214Z,6.93
2023-03-03T11:06:06.209Z,6.93
2023-03-03T11:10:26.231Z,9.98
2023-03-03T11:14:40.263Z,6.07
2023-03-03T11:19:11.333Z,8.57
2023-03-03T11:23:15.677Z,7.78
2023-03-03T11:27:29.328Z,9.50
2023-03-03T11:31:42.480Z,9.05
2023-03-03T11:36:14.910Z,4.10
2023-03-03T11:40:28.623Z,8.43
2023-03-03T11:44:42.072Z,7.70
2023-03-03T11:48:46.590Z,3.60
2023-03-03T11:52:54.552Z,8.95
2023-03-03T11:57:16.457Z,8.52
2023-03-03T12:01:17.888Z,11.13
2023-03-03T12:05:39.114Z,11.55
2023-03-03T12:10:05.248Z,9.38
2023-03-03T12:14:39.077Z,9.25
2023-03-03T12:19:25.313Z,9.38
2023-03-03T12:24:00.237Z,8.90
2023-03-03T12:28:07.617Z,9.65
2023-03-03T12:32:56.486Z,11.02
2023-03-03T12:37:30.136Z,6.47
2023-03-03T12:41:52.172Z,6.07
2023-03-03T12:45:56.499Z,11.40
2023-03-03T12:50:10.151Z,9.13
2023-03-03T12:54:37.417Z,6.75
2023-03-03T12:59:23.628Z,10.90
2023-03-03T13:03:55.080Z,11.43
2023-03-03T13:08:31.299Z,10.95
2023-03-03T13:12:46.993Z,10.20
2023-03-03T13:16:57.560Z,11.50
2023-03-03T13:21:11.357Z,11.75
2023-03-03T13:25:31.603Z,9.55
2023-03-03T13:29:49.733Z,10.15
2023-03-03T13:34:01.944Z,10.50
2023-03-03T13:38:06.201Z,10.10
2023-03-03T13:42:13.530Z,10.93
2023-03-03T13:46:25.852Z,9.45
2023-03-03T13:50:38.503Z,10.73
2023-03-03T13:55:07.269Z,8.05
2023-03-03T13:59:47.673Z,8.70
2023-03-03T14:03:49.462Z,8.70
2023-03-03T14:08:00.735Z,9.05
2023-03-03T14:12:33.635Z,9.57
2023-03-03T14:17:22.971Z,9.70
2023-03-03T14:21:30.495Z,9.75
2023-03-03T14:25:57.687Z,4.63
2023-03-03T14:29:59.170Z,7.63
2023-03-03T14:34:11.057Z,9.00
2023-03-03T14:38:18.799Z,10.50
2023-03-03T14:42:33.809Z,11.48
2023-03-03T14:46:41.627Z,8.35
2023-03-03T14:50:49.883Z,5.07
2023-03-03T14:54:58.155Z,7.13
2023-03-03T14:59:23.770Z,9.15
2023-03-03T15:03:28.309Z,6.40
2023-03-03T15:07:40.043Z,6.63
2023-03-03T15:11:44.147Z,10.25
2023-03-03T15:15:59.565Z,6.45
2023-03-03T15:20:20.107Z,9.38
2023-03-03T15:29:13.908Z,6.35
2023-03-03T15:33:26.531Z,8.48
2023-03-03T15:37:39.505Z,6.43
2023-03-03T15:41:47.714Z,8.43
2023-03-03T15:46:26.740Z,7.55
2023-03-03T15:50:50.226Z,9.07
2023-03-03T15:55:13.393Z,9.45
2023-03-03T15:59:36.394Z,9.30
2023-03-03T16:03:47.185Z,7.53
2023-03-03T16:08:15.993Z,8.20
2023-03-03T16:12:20.295Z,9.05
2023-03-03T16:16:40.594Z,9.32
2023-03-03T16:21:19.653Z,9.48
2023-03-03T16:26:12.594Z,7.68
2023-03-03T16:30:34.547Z,9.40
2023-03-03T16:34:55.937Z,9.82
2023-03-03T16:39:05.907Z,6.25
2023-03-03T16:47:33.413Z,9.68
2023-03-03T16:51:41.368Z,8.20
2023-03-03T16:55:57.730Z,7.15
2023-03-03T17:00:22.396Z,9.55
2023-03-03T17:04:42.892Z,9.98
2023-03-03T17:09:07.761Z,10.23
2023-03-03T17:13:43.381Z,9.32
2023-03-03T17:18:05.057Z,10.98
2023-03-03T17:22:12.683Z,9.85
2023-03-03T17:26:58.862Z,10.40
2023-03-03T17:31:26.752Z,9.48
2023-03-03T17:35:54.846Z,6.97
2023-03-03T17:40:14.934Z,7.60
2023-03-03T17:44:21.562Z,10.40
2023-03-03T17:48:32.177Z,8.20
2023-03-03T17:53:18.997Z,10.35
2023-03-03T17:57:38.817Z,9.38
2023-03-03T18:01:56.945Z,9.05
2023-03-03T18:06:19.444Z,9.73
2023-03-03T18:10:51.318Z,9.70
2023-03-03T18:15:17.567Z,11.65
2023-03-03T18:20:01.829Z,9.32
2023-03-03T18:24:24.868Z,9.27
2023-03-03T18:28:49.356Z,8.88
2023-03-03T18:32:56.531Z,10.00
2023-03-03T18:37:30.027Z,8.13
2023-03-03T18:41:34.109Z,11.55
2023-03-03T18:45:35.694Z,9.77
2023-03-03T18:49:49.210Z,11.63
2023-03-03T18:54:30.999Z,10.40
2023-03-03T18:58:41.726Z,10.75
2023-03-03T19:02:53.789Z,11.38
2023-03-03T19:07:03.190Z,6.38
2023-03-03T19:11:04.697Z,12.43
2023-03-03T19:15:28.278Z,10.20
2023-03-03T19:19:35.023Z,10.07
2023-03-03T19:24:05.971Z,7.18
2023-03-03T19:32:39.347Z,11.35
2023-03-03T19:36:56.796Z,9.20
2023-03-03T19:41:20.789Z,12.07
2023-03-03T19:45:33.632Z,5.53
2023-03-03T19:50:12.481Z,10.85
2023-03-03T19:54:48.714Z,10.20
2023-03-03T19:59:09.522Z,9.85
2023-03-03T20:03:50.426Z,11.52
2023-03-03T20:08:11.043Z,5.93
2023-03-03T20:12:37.503Z,10.77
2023-03-03T20:16:41.651Z,11.82
2023-03-03T20:21:34.394Z,8.40
2023-03-03T20:25:57.117Z,11.73
2023-03-03T20:30:17.220Z,10.90
2023-03-03T20:34:37.478Z,7.72
2023-03-03T20:38:49.461Z,10.02
2023-03-03T20:43:11.118Z,10.00
2023-03-03T20:47:22.074Z,5.43
2023-03-03T20:52:01.086Z,10.00
2023-03-03T20:56:23.808Z,9.13
2023-03-03T21:00:31.358Z,8.30
2023-03-03T21:04:36.320Z,4.22
2023-03-03T21:08:49.753Z,6.70
2023-03-03T21:12:56.763Z,8.95
2023-03-03T21:17:02.648Z,6.50
2023-03-03T21:21:05.475Z,4.60
2023-03-03T21:25:07.207Z,7.43
2023-03-03T21:29:08.730Z,9.82
2023-03-03T21:33:10.335Z,10.20
2023-03-03T21:37:15.310Z,10.65
2023-03-03T21:41:17.810Z,8.63
2023-03-03T21:45:23.673Z,6.13
2023-03-03T21:49:25.386Z,8.27
2023-03-03T21:53:29.483Z,8.35
2023-03-03T21:57:31.068Z,8.85
2023-03-03T22:01:32.582Z,6.85
2023-03-03T22:05:34.850Z,11.55
2023-03-03T22:09:36.900Z,11.30
2023-03-03T22:13:39.916Z,7.28
2023-03-03T22:17:43.059Z,13.70
2023-03-03T22:21:44.573Z,9.32
2023-03-03T22:25:46.570Z,9.23
2023-03-03T22:29:48.077Z,11.68
2023-03-03T22:33:50.386Z,7.93
2023-03-03T22:37:51.849Z,6.72
2023-03-03T22:41:53.483Z,11.60
2023-03-03T22:45:55.623Z,10.20
2023-03-03T22:49:57.114Z,8.10
2023-03-03T22:53:58.810Z,10.40
2023-03-03T22:58:00.370Z,10.73
2023-03-03T23:02:01.957Z,11.70
2023-03-03T23:06:03.654Z,13.57
2023-03-03T23:10:06.622Z,8.15
2023-03-03T23:14:08.120Z,10.00
2023-03-03T23:18:09.614Z,11.75
2023-03-03T23:22:11.040Z,9.25
2023-03-03T23:26:12.542Z,12.13
2023-03-03T23:30:16.301Z,9.32
2023-03-03T23:34:17.961Z,8.73
2023-03-03T23:38:19.515Z,8.50
2023-03-03T23:42:21.152Z,7.25
2023-03-03T23:46:22.671Z,10.48
2023-03-03T23:50:24.187Z,12.23
2023-03-03T23:54:25.707Z,13.52
2023-03-03T23:58:27.170Z,11.68
